Time;durP1;ratioP1;P1;durP2;ratioP2;P2;SDS_P1;SDS_P2;PMS_P1;PMS_P2;Temp;Humidity;BMP_temperature;BMP_pressure;BME280_temperature;BME280_humidity;BME280_pressure;Samples;Min_cycle;Max_cycle;Signal;HPM_P1;HPM_P2
2023/08/16 00:01:24;;;;;;;0.60;0.43;;;;;;;;;;5032534;28;20087;-73
2023/08/16 00:03:51;;;;;;;0.45;0.43;;;;;;;;;;5032537;28;20120;-73
2023/08/16 00:06:17;;;;;;;0.60;0.50;;;;;;;;;;5032330;28;20041;-74
2023/08/16 00:08:44;;;;;;;0.75;0.50;;;;;;;;;;5032531;28;20037;-73
2023/08/16 00:11:10;;;;;;;1.45;0.50;;;;;;;;;;5032095;28;20168;-74
2023/08/16 00:13:37;;;;;;;0.68;0.50;;;25.70;73.70;;;;;;5032008;28;20099;-74
2023/08/16 00:16:03;;;;;;;0.70;0.60;;;;;;;;;;5032438;28;20034;-73
2023/08/16 00:18:30;;;;;;;0.80;0.40;;;;;;;;;;5032036;28;20063;-74
2023/08/16 00:20:57;;;;;;;0.40;0.40;;;;;;;;;;5032309;28;20106;-73
2023/08/16 00:23:23;;;;;;;0.85;0.50;;;;;;;;;;5032279;28;20033;-73
2023/08/16 00:25:50;;;;;;;0.85;0.52;;;;;;;;;;5032431;28;20061;-74
2023/08/16 00:28:16;;;;;;;0.60;0.50;;;;;;;;;;5031963;28;20523;-73
2023/08/16 00:30:42;;;;;;;0.50;0.50;;;;;;;;;;5031932;28;20100;-73
2023/08/16 00:33:09;;;;;;;1.02;0.40;;;;;;;;;;5032070;28;20120;-73
2023/08/16 00:35:36;;;;;;;0.80;0.40;;;;;;;;;;5032317;28;20045;-73
2023/08/16 00:38:02;;;;;;;0.50;0.40;;;;;;;;;;5032234;28;20036;-73
2023/08/16 00:40:28;;;;;;;0.60;0.30;;;;;;;;;;5032084;28;20057;-74
2023/08/16 00:42:55;;;;;;;0.45;0.40;;;;;;;;;;5031990;28;20392;-73
2023/08/16 00:45:21;;;;;;;0.75;0.60;;;;;;;;;;5031278;28;20041;-73
2023/08/16 00:47:48;;;;;;;0.60;0.30;;;;;;;;;;5031573;28;20482;-74
2023/08/16 00:50:14;;;;;;;0.70;0.57;;;;;;;;;;5031672;28;20041;-73
2023/08/16 00:52:41;;;;;;;0.68;0.50;;;25.50;72.80;;;;;;5032469;28;20108;-74
2023/08/16 00:55:08;;;;;;;1.05;0.50;;;25.70;73.20;;;;;;5032024;28;20068;-74
2023/08/16 00:57:35;;;;;;;0.70;0.43;;;;;;;;;;5031920;28;20483;-73
2023/08/16 01:00:01;;;;;;;0.80;0.52;;;;;;;;;;5031447;28;20076;-73
2023/08/16 01:02:28;;;;;;;0.90;0.40;;;;;;;;;;5031472;28;20048;-73
2023/08/16 01:04:55;;;;;;;1.05;0.50;;;25.40;72.90;;;;;;5031775;28;20061;-73
2023/08/16 01:07:22;;;;;;;0.57;0.45;;;;;;;;;;5031510;28;20029;-73
2023/08/16 01:09:48;;;;;;;0.95;0.50;;;;;;;;;;5031449;28;20048;-73
2023/08/16 01:12:38;;;;;;;0.47;0.32;;;25.50;67.20;;;;;;5031218;28;20041;-74
2023/08/16 01:15:30;;;;;;;1.02;0.50;;;25.50;67.10;;;;;;5013609;28;20077;-72
2023/08/16 01:17:59;;;;;;;1.02;0.30;;;25.40;73.00;;;;;;5031720;28;20052;-73
2023/08/16 01:20:25;;;;;;;0.60;0.40;;;;;;;;;;5031468;28;20034;-73
2023/08/16 01:23:07;;;;;;;0.45;0.45;;;25.30;67.10;;;;;;5032056;28;20029;-73
2023/08/16 01:25:39;;;;;;;0.70;0.30;;;25.30;67.00;;;;;;5031352;28;20037;-73
2023/08/16 01:28:06;;;;;;;1.05;0.68;;;;;;;;;;5031331;28;20333;-73
2023/08/16 01:30:32;;;;;;;0.68;0.52;;;;;;;;;;5031028;28;20042;-73
2023/08/16 01:33:08;;;;;;;0.80;0.40;;;25.30;67.30;;;;;;5031052;28;20049;-73
2023/08/16 01:35:36;;;;;;;0.50;0.50;;;25.30;73.50;;;;;;5031205;28;20038;-73
2023/08/16 01:38:03;;;;;;;1.00;0.43;;;25.30;72.00;;;;;;5031433;28;20065;-73
2023/08/16 01:40:37;;;;;;;0.43;0.40;;;25.30;73.30;;;;;;5031062;28;20036;-73
2023/08/16 01:43:06;;;;;;;0.50;0.47;;;25.30;73.20;;;;;;5031324;28;20427;-73
2023/08/16 01:45:33;;;;;;;0.50;0.50;;;25.30;73.10;;;;;;5031356;28;20033;-73
2023/08/16 01:48:01;;;;;;;0.40;0.40;;;25.30;73.30;;;;;;5030953;28;20033;-73
2023/08/16 01:50:27;;;;;;;0.40;0.40;;;;;;;;;;5030962;28;20492;-73
2023/08/16 01:52:54;;;;;;;1.02;0.47;;;;;;;;;;5031082;28;20377;-73
2023/08/16 01:55:20;;;;;;;0.40;0.30;;;;;;;;;;5031193;28;20095;-73
2023/08/16 01:57:46;;;;;;;0.93;0.60;;;;;;;;;;5032712;28;20034;-73
2023/08/16 02:00:15;;;;;;;0.88;0.60;;;;;;;;;;5034708;28;20038;-73
2023/08/16 02:02:41;;;;;;;1.02;0.32;;;;;;;;;;5034763;28;20068;-73
2023/08/16 02:05:08;;;;;;;0.85;0.50;;;;;;;;;;5034471;28;20045;-73
2023/08/16 02:07:34;;;;;;;0.73;0.47;;;;;;;;;;5034602;28;20061;-73
2023/08/16 02:10:00;;;;;;;0.88;0.50;;;;;;;;;;5034961;28;20072;-73
2023/08/16 02:12:26;;;;;;;0.68;0.57;;;;;;;;;;5034230;28;20057;-73
2023/08/16 02:14:52;;;;;;;0.95;0.40;;;;;;;;;;5034316;28;20037;-73
2023/08/16 02:17:19;;;;;;;0.47;0.38;;;;;;;;;;5034332;28;20492;-73
2023/08/16 02:19:45;;;;;;;0.80;0.40;;;;;;;;;;5034187;28;20389;-73
2023/08/16 02:22:12;;;;;;;1.42;0.60;;;;;;;;;;5034031;28;20029;-73
2023/08/16 02:24:38;;;;;;;0.63;0.40;;;;;;;;;;5034396;28;20549;-73
2023/08/16 02:27:05;;;;;;;1.35;0.40;;;;;;;;;;5034059;28;20087;-73
2023/08/16 02:29:31;;;;;;;0.95;0.40;;;;;;;;;;5034308;28;20045;-73
2023/08/16 02:31:58;;;;;;;1.02;0.50;;;;;;;;;;5034001;28;20034;-73
2023/08/16 02:34:24;;;;;;;0.40;0.40;;;;;;;;;;5034165;28;20052;-73
2023/08/16 02:36:51;;;;;;;0.60;0.43;;;;;;;;;;5034737;28;20034;-73
2023/08/16 02:39:17;;;;;;;0.90;0.50;;;;;;;;;;5034210;28;20049;-73
2023/08/16 02:41:43;;;;;;;0.50;0.30;;;;;;;;;;5034017;28;20038;-73
2023/08/16 02:44:10;;;;;;;0.52;0.50;;;;;;;;;;5034191;28;20041;-73
2023/08/16 02:46:36;;;;;;;0.80;0.40;;;;;;;;;;5033725;28;20034;-73
2023/08/16 02:49:03;;;;;;;0.77;0.43;;;;;;;;;;5033720;28;20052;-73
2023/08/16 02:51:29;;;;;;;0.60;0.40;;;;;;;;;;5033950;28;20400;-73
2023/08/16 02:53:55;;;;;;;0.55;0.30;;;;;;;;;;5033513;28;20046;-73
2023/08/16 02:56:22;;;;;;;1.13;0.50;;;;;;;;;;5033830;28;20400;-73
2023/08/16 02:58:48;;;;;;;1.00;0.50;;;;;;;;;;5033570;28;20045;-73
2023/08/16 03:01:15;;;;;;;1.10;0.55;;;;;;;;;;5033675;28;20032;-73
2023/08/16 03:03:41;;;;;;;0.90;0.50;;;24.90;73.70;;;;;;5033499;28;20120;-73
2023/08/16 03:06:07;;;;;;;1.52;0.60;;;;;;;;;;5033935;28;20041;-73
2023/08/16 03:08:34;;;;;;;0.47;0.40;;;;;;;;;;5032753;28;20038;-73
2023/08/16 03:11:01;;;;;;;0.88;0.63;;;;;;;;;;5033381;28;20077;-73
2023/08/16 03:13:27;;;;;;;0.50;0.45;;;;;;;;;;5032896;28;20157;-73
2023/08/16 03:15:53;;;;;;;0.95;0.57;;;;;;;;;;5033364;28;20049;-73
2023/08/16 03:18:20;;;;;;;0.50;0.40;;;;;;;;;;5033162;28;20048;-73
2023/08/16 03:20:46;;;;;;;0.70;0.43;;;;;;;;;;5033127;28;20033;-73
2023/08/16 03:23:12;;;;;;;0.70;0.60;;;;;;;;;;5033155;28;20029;-73
2023/08/16 03:25:38;;;;;;;0.68;0.50;;;;;;;;;;5033046;28;20468;-73
2023/08/16 03:28:04;;;;;;;0.55;0.50;;;;;;;;;;5033070;28;20441;-73
2023/08/16 03:30:31;;;;;;;0.60;0.52;;;;;;;;;;5032825;28;20037;-73
2023/08/16 03:32:57;;;;;;;0.57;0.40;;;;;;;;;;5033088;28;20037;-73
2023/08/16 03:35:24;;;;;;;0.43;0.43;;;;;;;;;;5033321;28;20117;-73
2023/08/16 03:37:50;;;;;;;0.88;0.52;;;;;;;;;;5032894;28;20405;-73
2023/08/16 03:40:16;;;;;;;0.65;0.50;;;;;;;;;;5032866;28;20037;-73
2023/08/16 03:42:42;;;;;;;1.05;0.40;;;;;;;;;;5032708;28;20033;-72
2023/08/16 03:45:09;;;;;;;0.77;0.40;;;;;;;;;;5032682;28;20149;-73
2023/08/16 03:47:34;;;;;;;0.88;0.50;;;;;;;;;;5032700;28;20041;-73
2023/08/16 03:50:01;;;;;;;0.63;0.50;;;;;;;;;;5032457;28;20117;-73
2023/08/16 03:52:27;;;;;;;0.40;0.38;;;;;;;;;;5032475;28;20041;-73
2023/08/16 03:54:54;;;;;;;0.70;0.32;;;;;;;;;;5032386;28;20060;-73
2023/08/16 03:57:20;;;;;;;0.60;0.38;;;;;;;;;;5032437;28;20034;-73
2023/08/16 03:59:46;;;;;;;0.73;0.60;;;;;;;;;;5032416;28;20041;-73
2023/08/16 04:02:12;;;;;;;0.60;0.50;;;;;;;;;;5032819;28;20033;-73
2023/08/16 04:04:38;;;;;;;0.43;0.40;;;;;;;;;;5032218;28;20043;-73
2023/08/16 04:07:04;;;;;;;0.50;0.50;;;;;;;;;;5032289;28;20473;-73
2023/08/16 04:09:31;;;;;;;0.60;0.40;;;;;;;;;;5032497;28;20407;-73
2023/08/16 04:11:58;;;;;;;0.50;0.50;;;;;;;;;;5032231;28;20125;-73
2023/08/16 04:14:24;;;;;;;1.08;0.70;;;;;;;;;;5032337;28;20054;-73
2023/08/16 04:16:50;;;;;;;0.50;0.50;;;;;;;;;;5032126;28;20483;-73
2023/08/16 04:19:17;;;;;;;0.45;0.40;;;;;;;;;;5032317;28;20057;-72
2023/08/16 04:21:43;;;;;;;1.30;0.40;;;;;;;;;;5032119;28;20083;-73
2023/08/16 04:24:10;;;;;;;1.05;0.60;;;;;;;;;;5031913;28;20037;-73
2023/08/16 04:26:36;;;;;;;0.47;0.40;;;;;;;;;;5031993;28;20034;-73
2023/08/16 04:29:04;;;;;;;0.45;0.43;;;;;;;;;;5032290;28;20071;-73
2023/08/16 04:31:30;;;;;;;0.38;0.38;;;;;;;;;;5032488;28;20029;-73
2023/08/16 04:33:56;;;;;;;0.50;0.38;;;;;;;;;;5031854;28;20545;-73
2023/08/16 04:36:22;;;;;;;0.43;0.40;;;;;;;;;;5031899;28;20494;-73
2023/08/16 04:38:49;;;;;;;0.43;0.38;;;;;;;;;;5031701;28;20116;-73
2023/08/16 04:41:15;;;;;;;0.70;0.40;;;;;;;;;;5032147;28;20365;-73
2023/08/16 04:43:42;;;;;;;0.68;0.38;;;;;;;;;;5032190;28;20041;-73
2023/08/16 04:46:08;;;;;;;0.52;0.30;;;;;;;;;;5031689;28;20049;-73
2023/08/16 04:48:35;;;;;;;1.23;0.30;;;;;;;;;;5031614;28;20468;-73
2023/08/16 04:51:01;;;;;;;0.90;0.40;;;;;;;;;;5031782;28;20080;-73
2023/08/16 04:53:28;;;;;;;0.30;0.30;;;;;;;;;;5031829;28;20045;-73
2023/08/16 04:55:54;;;;;;;0.98;0.43;;;;;;;;;;5031843;28;20399;-73
2023/08/16 04:58:21;;;;;;;0.40;0.40;;;;;;;;;;5031560;28;20041;-73
2023/08/16 05:00:47;;;;;;;0.50;0.40;;;;;;;;;;5032030;28;20029;-73
2023/08/16 05:03:13;;;;;;;0.50;0.50;;;;;;;;;;5031817;28;20380;-73
2023/08/16 05:05:40;;;;;;;0.63;0.35;;;;;;;;;;5031728;28;20044;-73
2023/08/16 05:08:06;;;;;;;0.40;0.30;;;;;;;;;;5031458;28;20061;-73
2023/08/16 05:10:32;;;;;;;0.40;0.35;;;;;;;;;;5031550;28;20064;-73
2023/08/16 05:12:58;;;;;;;0.32;0.32;;;;;;;;;;5013454;28;20140;-73
2023/08/16 05:15:24;;;;;;;0.32;0.32;;;;;;;;;;5031342;28;20041;-74
2023/08/16 05:17:50;;;;;;;1.15;0.57;;;;;;;;;;5031549;28;20033;-75
2023/08/16 05:20:17;;;;;;;0.93;0.63;;;;;;;;;;5016015;28;20084;-74
2023/08/16 05:22:43;;;;;;;0.70;0.43;;;;;;;;;;5037389;28;20061;-74
2023/08/16 05:25:10;;;;;;;0.45;0.40;;;;;;;;;;5031503;28;20069;-74
2023/08/16 05:27:36;;;;;;;0.60;0.50;;;;;;;;;;5032029;28;20471;-74
2023/08/16 05:30:03;;;;;;;0.40;0.30;;;;;;;;;;5031181;28;20041;-73
2023/08/16 05:32:30;;;;;;;0.63;0.55;;;;;;;;;;5032225;28;20042;-73
2023/08/16 05:34:56;;;;;;;0.40;0.40;;;;;;;;;;5035248;28;20403;-71
2023/08/16 05:37:23;;;;;;;0.70;0.47;;;;;;;;;;5035232;28;20122;-73
2023/08/16 05:39:49;;;;;;;0.70;0.50;;;;;;;;;;5035014;28;20065;-75
2023/08/16 05:42:15;;;;;;;0.68;0.40;;;;;;;;;;5034934;28;20120;-75
2023/08/16 05:44:41;;;;;;;1.23;0.55;;;;;;;;;;5034764;28;20121;-75
2023/08/16 05:47:07;;;;;;;0.52;0.40;;;;;;;;;;5034724;28;20543;-75
2023/08/16 05:49:33;;;;;;;0.70;0.52;;;;;;;;;;5034641;28;20033;-75
2023/08/16 05:51:59;;;;;;;0.40;0.38;;;;;;;;;;5034715;28;20034;-75
2023/08/16 05:54:25;;;;;;;0.88;0.50;;;;;;;;;;5034478;28;20056;-76
2023/08/16 05:56:51;;;;;;;0.43;0.35;;;;;;;;;;5035026;28;20022;-76
2023/08/16 05:59:17;;;;;;;0.50;0.40;;;;;;;;;;5034897;28;20124;-76
2023/08/16 06:01:43;;;;;;;0.95;0.65;;;;;;;;;;5034472;28;20026;-76
2023/08/16 06:04:10;;;;;;;0.63;0.47;;;;;;;;;;5034759;28;20041;-76
2023/08/16 06:06:36;;;;;;;0.73;0.50;;;;;;;;;;5034566;28;20061;-76
2023/08/16 06:09:03;;;;;;;1.02;0.40;;;;;;;;;;5034882;28;20045;-76
2023/08/16 06:11:29;;;;;;;2.38;0.50;;;;;;;;;;5034531;28;20038;-76
2023/08/16 06:13:56;;;;;;;0.30;0.30;;;;;;;;;;5034691;28;20404;-76
2023/08/16 06:16:22;;;;;;;1.58;0.50;;;;;;;;;;5034297;28;20662;-76
2023/08/16 06:18:50;;;;;;;0.60;0.60;;;;;;;;;;5034347;28;20041;-76
2023/08/16 06:21:17;;;;;;;1.40;0.50;;;;;;;;;;5034524;28;20034;-76
2023/08/16 06:23:43;;;;;;;0.80;0.50;;;;;;;;;;5034283;28;20037;-76
2023/08/16 06:26:10;;;;;;;0.47;0.40;;;;;;;;;;5034887;28;20038;-76
2023/08/16 06:28:37;;;;;;;1.77;0.60;;;;;;;;;;5034170;28;20507;-76
2023/08/16 06:31:03;;;;;;;1.75;0.60;;;;;;;;;;5033940;28;20534;-76
2023/08/16 06:33:30;;;;;;;0.73;0.40;;;;;;;;;;5033924;28;20132;-76
2023/08/16 06:35:57;;;;;;;2.90;0.47;;;;;;;;;;5033922;28;20038;-74
2023/08/16 06:38:23;;;;;;;0.35;0.30;;;;;;;;;;5033939;28;20038;-73
2023/08/16 06:40:50;;;;;;;1.45;0.60;;;;;;;;;;5033865;28;20034;-75
2023/08/16 06:43:16;;;;;;;0.65;0.57;;;;;;;;;;5033246;28;20396;-75
2023/08/16 06:45:43;;;;;;;1.35;0.63;;;;;;;;;;5033410;28;20065;-74
2023/08/16 06:48:09;;;;;;;1.65;0.47;;;;;;;;;;5034076;28;20037;-74
2023/08/16 06:50:36;;;;;;;0.47;0.40;;;;;;;;;;5033687;28;20065;-73
2023/08/16 06:53:03;;;;;;;0.52;0.52;;;;;;;;;;5034452;28;20103;-74
2023/08/16 06:55:30;;;;;;;1.35;0.45;;;;;;;;;;5033877;28;20407;-76
2023/08/16 06:57:56;;;;;;;0.70;0.40;;;;;;;;;;5033964;28;20034;-76
2023/08/16 07:00:23;;;;;;;2.20;0.50;;;;;;;;;;5033463;28;20496;-72
2023/08/16 07:02:49;;;;;;;0.75;0.60;;;;;;;;;;5033396;28;20598;-72
2023/08/16 07:05:16;;;;;;;0.95;0.68;;;;;;;;;;5033739;28;20045;-72
2023/08/16 07:07:42;;;;;;;1.05;0.50;;;;;;;;;;5033780;28;20116;-72
2023/08/16 07:10:09;;;;;;;1.15;0.60;;;;;;;;;;5033408;28;20076;-72
2023/08/16 07:12:35;;;;;;;1.58;0.50;;;;;;;;;;5033167;28;20057;-72
2023/08/16 07:15:02;;;;;;;1.30;0.73;;;;;;;;;;5033444;28;20412;-72
2023/08/16 07:17:28;;;;;;;0.80;0.65;;;;;;;;;;5033381;28;20087;-73
2023/08/16 07:19:54;;;;;;;1.35;0.60;;;;;;;;;;5033194;28;20045;-73
2023/08/16 07:22:24;;;;;;;0.93;0.60;;;;;;;;;;5033638;28;20036;-73
2023/08/16 07:24:50;;;;;;;1.20;0.50;;;;;;;;;;5033109;28;20041;-72
2023/08/16 07:27:16;;;;;;;3.03;0.50;;;;;;;;;;5033087;28;20037;-73
2023/08/16 07:29:43;;;;;;;0.95;0.50;;;;;;;;;;5032994;28;20032;-72
2023/08/16 07:32:09;;;;;;;0.70;0.60;;;;;;;;;;5033240;28;20068;-71
2023/08/16 07:34:36;;;;;;;1.15;0.60;;;;;;;;;;5032866;28;20046;-73
2023/08/16 07:37:03;;;;;;;2.92;0.60;;;;;;;;;;5033184;28;20396;-74
2023/08/16 07:39:31;;;;;;;0.60;0.47;;;;;;;;;;5032683;28;20033;-73
2023/08/16 07:41:58;;;;;;;0.98;0.40;;;;;;;;;;5033042;28;20395;-73
2023/08/16 07:44:24;;;;;;;0.80;0.30;;;;;;;;;;5033059;28;20115;-73
2023/08/16 07:46:51;;;;;;;0.65;0.50;;;;;;;;;;5032575;28;20044;-73
2023/08/16 07:49:17;;;;;;;0.70;0.52;;;;;;;;;;5032897;28;20412;-72
2023/08/16 07:51:44;;;;;;;2.63;0.40;;;;;;;;;;5033041;28;20040;-72
2023/08/16 07:54:10;;;;;;;1.05;0.40;;;;;;;;;;5032587;28;20466;-72
2023/08/16 07:56:36;;;;;;;1.20;0.57;;;;;;;;;;5032108;28;20034;-72
2023/08/16 07:59:03;;;;;;;0.32;0.30;;;;;;;;;;5032529;28;20053;-72
2023/08/16 08:01:29;;;;;;;1.02;0.32;;;;;;;;;;5032750;28;20431;-72
2023/08/16 08:03:56;;;;;;;0.40;0.30;;;;;;;;;;5032363;28;20084;-72
2023/08/16 08:06:22;;;;;;;1.98;0.40;;;;;;;;;;5032585;28;20049;-72
2023/08/16 08:08:49;;;;;;;0.85;0.50;;;;;;;;;;5032619;28;20044;-72
2023/08/16 08:11:15;;;;;;;1.20;0.55;;;;;;;;;;5032390;28;20412;-72
2023/08/16 08:13:42;;;;;;;0.93;0.40;;;;;;;;;;5032487;28;20175;-72
2023/08/16 08:16:08;;;;;;;1.98;0.50;;;;;;;;;;5032601;28;20034;-72
2023/08/16 08:18:35;;;;;;;1.02;0.40;;;;;;;;;;5015162;28;20614;-72
2023/08/16 08:21:01;;;;;;;0.40;0.40;;;;;;;;;;5032268;28;20030;-71
2023/08/16 08:23:27;;;;;;;0.70;0.30;;;;;;;;;;5032179;28;20044;-72
2023/08/16 08:25:53;;;;;;;2.92;0.50;;;;;;;;;;5032042;28;20100;-72
2023/08/16 08:28:20;;;;;;;0.93;0.40;;;;;;;;;;5032063;28;20037;-71
2023/08/16 08:30:47;;;;;;;1.10;0.47;;;;;;;;;;5032396;28;20033;-71
2023/08/16 08:33:13;;;;;;;1.83;0.70;;;;;;;;;;5032249;28;20038;-71
2023/08/16 08:35:40;;;;;;;0.88;0.40;;;;;;;;;;5032174;28;20041;-72
2023/08/16 08:38:06;;;;;;;1.10;0.60;;;;;;;;;;5032155;28;20451;-71
2023/08/16 08:40:33;;;;;;;0.80;0.40;;;;;;;;;;5032211;28;20111;-71
2023/08/16 08:43:00;;;;;;;3.05;0.60;;;;;;;;;;5032182;28;20069;-73
2023/08/16 08:45:27;;;;;;;1.40;0.70;;;24.90;72.60;;;;;;5032123;28;20337;-71
2023/08/16 08:47:57;;;;;;;0.45;0.40;;;24.60;75.80;;;;;;5035927;28;20095;-72
2023/08/16 08:50:23;;;;;;;0.73;0.50;;;;;;;;;;5032009;28;20041;-72
2023/08/16 08:52:51;;;;;;;0.95;0.50;;;24.60;75.70;;;;;;5031950;28;20045;-72
2023/08/16 08:55:18;;;;;;;1.13;0.60;;;24.70;74.90;;;;;;5032039;28;20048;-72
2023/08/16 08:57:50;;;;;;;1.30;0.70;;;24.80;76.00;;;;;;5031617;28;20488;-72
2023/08/16 09:00:20;;;;;;;2.15;0.60;;;24.70;76.20;;;;;;5031792;28;20056;-71
2023/08/16 09:02:50;;;;;;;1.60;0.70;;;23.30;75.60;;;;;;5031749;28;20084;-71
2023/08/16 09:05:18;;;;;;;;;;;24.80;77.10;;;;;;5032147;28;20586;-72
2023/08/16 09:07:44;;;;;;;0.90;0.60;;;;;;;;;;5033604;28;19905;-72
2023/08/16 09:10:11;;;;;;;1.30;0.40;;;24.90;76.60;;;;;;5036119;28;20030;-72
2023/08/16 09:12:38;;;;;;;1.10;0.55;;;24.90;73.50;;;;;;5035726;28;20052;-74
2023/08/16 09:15:09;;;;;;;1.88;0.60;;;24.90;76.80;;;;;;5035907;28;20092;-74
2023/08/16 09:17:36;;;;;;;0.35;0.30;;;;;;;;;;5036188;28;20026;-74
2023/08/16 09:20:05;;;;;;;1.30;0.60;;;;;;;;;;5035671;28;20029;-72
2023/08/16 09:22:32;;;;;;;1.37;0.50;;;;;;;;;;5035875;28;20036;-74
2023/08/16 09:24:58;;;;;;;1.20;0.40;;;;;;;;;;5035711;28;20416;-74
2023/08/16 09:27:26;;;;;;;1.08;0.90;;;;;;;;;;5035406;28;20506;-74
2023/08/16 09:29:55;;;;;;;1.63;0.63;;;25.30;71.20;;;;;;5035316;28;20120;-72
2023/08/16 09:32:22;;;;;;;1.05;0.47;;;25.30;77.40;;;;;;5035837;28;20038;-71
2023/08/16 09:34:49;;;;;;;1.30;0.63;;;;;;;;;;5035671;28;20137;-72
2023/08/16 09:37:16;;;;;;;0.70;0.30;;;;;;;;;;5035755;28;20038;-72
2023/08/16 09:39:42;;;;;;;3.83;0.63;;;;;;;;;;5035339;28;20041;-72
2023/08/16 09:42:10;;;;;;;1.92;0.50;;;;;;;;;;5035721;28;20045;-72
2023/08/16 09:44:39;;;;;;;1.35;0.50;;;25.60;74.10;;;;;;5035584;28;20455;-72
2023/08/16 09:47:15;;;;;;;0.70;0.50;;;25.70;71.80;;;;;;5035356;28;20044;-71
2023/08/16 09:49:44;;;;;;;0.60;0.43;;;;;;;;;;5035334;28;20057;-72
2023/08/16 09:52:12;;;;;;;1.55;0.70;;;25.80;77.50;;;;;;5035639;28;20061;-73
2023/08/16 09:54:39;;;;;;;1.20;0.60;;;;;;;;;;5035239;28;20061;-77
2023/08/16 09:57:05;;;;;;;2.75;0.55;;;;;;;;;;5034982;28;20075;-77
2023/08/16 09:59:32;;;;;;;1.95;0.60;;;;;;;;;;5035347;28;20042;-74
2023/08/16 10:01:59;;;;;;;1.63;0.40;;;25.90;77.10;;;;;;5035126;28;20037;-74
2023/08/16 10:04:27;;;;;;;1.40;0.40;;;26.00;77.40;;;;;;5035067;28;20037;-75
2023/08/16 10:06:55;;;;;;;0.93;0.55;;;26.10;77.60;;;;;;5035122;28;20037;-81
2023/08/16 10:09:22;;;;;;;2.15;0.73;;;26.10;74.80;;;;;;5017622;28;20060;-75
2023/08/16 10:11:49;;;;;;;2.67;0.60;;;;;;;;;;5034648;28;20128;-73
2023/08/16 10:14:16;;;;;;;1.27;0.50;;;;;;;;;;5034700;28;20041;-77
2023/08/16 10:16:48;;;;;;;1.23;0.50;;;26.10;77.70;;;;;;5035341;28;20030;-74
2023/08/16 10:19:18;;;;;;;2.10;0.55;;;26.50;78.00;;;;;;5034637;28;20391;-74
2023/08/16 10:21:48;;;;;;;3.35;0.80;;;26.20;77.80;;;;;;5035392;28;20373;-73
2023/08/16 10:24:15;;;;;;;1.77;0.52;;;;;;;;;;5034550;28;20086;-74
2023/08/16 10:26:47;;;;;;;1.67;0.80;;;26.30;77.00;;;;;;5034387;28;20095;-75
2023/08/16 10:29:16;;;;;;;1.85;0.50;;;26.40;75.90;;;;;;5034283;28;20433;-74
2023/08/16 10:31:46;;;;;;;1.15;0.80;;;26.40;76.70;;;;;;5034715;28;20151;-73
2023/08/16 10:34:15;;;;;;;0.75;0.40;;;26.50;76.00;;;;;;5034556;28;20045;-76
2023/08/16 10:36:42;;;;;;;0.63;0.50;;;26.60;75.20;;;;;;5034415;28;20395;-75
2023/08/16 10:39:08;;;;;;;2.80;0.93;;;;;;;;;;5034198;28;20042;-75
2023/08/16 10:41:40;;;;;;;1.08;0.65;;;26.80;69.40;;;;;;5034109;28;20052;-75
2023/08/16 10:44:07;;;;;;;1.95;0.60;;;;;;;;;;5034134;28;20496;-75
2023/08/16 10:46:37;;;;;;;0.50;0.50;;;27.00;70.10;;;;;;5034038;28;20502;-75
2023/08/16 10:49:06;;;;;;;0.40;0.40;;;27.10;76.10;;;;;;5034341;28;20037;-75
2023/08/16 10:51:44;;;;;;;2.08;1.00;;;27.10;70.20;;;;;;5034009;28;20044;-75
2023/08/16 10:54:10;;;;;;;1.77;0.50;;;;;;;;;;5033878;28;20056;-78
2023/08/16 10:56:38;;;;;;;1.50;0.60;;;;;;;;;;5034139;28;20035;-76
2023/08/16 10:59:07;;;;;;;0.82;0.50;;;27.30;68.80;;;;;;5034029;28;20092;-76
2023/08/16 11:01:34;;;;;;;1.08;0.63;;;;;;;;;;5033815;28;20034;-76
2023/08/16 11:04:05;;;;;;;1.10;0.50;;;27.40;74.00;;;;;;5034129;28;20044;-72
2023/08/16 11:06:32;;;;;;;1.35;0.65;;;;;;;;;;5034051;28;20084;-72
2023/08/16 11:09:00;;;;;;;1.50;0.70;;;27.60;75.00;;;;;;5033687;28;20454;-72
2023/08/16 11:11:27;;;;;;;1.63;0.68;;;;;;;;;;5033598;28;20085;-73
2023/08/16 11:13:58;;;;;;;0.82;0.40;;;27.70;74.20;;;;;;5033732;28;20041;-72
2023/08/16 11:16:25;;;;;;;1.52;0.60;;;;;;;;;;5033702;28;20029;-72
2023/08/16 11:18:51;;;;;;;1.20;0.50;;;;;;;;;;5034219;28;20057;-72
2023/08/16 11:21:19;;;;;;;0.70;0.60;;;;;;;;;;5033409;28;20072;-72
2023/08/16 11:23:45;;;;;;;1.58;0.60;;;;;;;;;;5033610;28;20401;-72
2023/08/16 11:26:11;;;;;;;1.20;0.75;;;;;;;;;;5033407;28;20078;-72
2023/08/16 11:28:39;;;;;;;2.38;0.73;;;28.20;73.30;;;;;;5033407;28;20041;-73
2023/08/16 11:31:06;;;;;;;1.40;0.50;;;28.20;72.80;;;;;;5015247;28;20111;-72
2023/08/16 11:33:33;;;;;;;2.53;0.65;;;;;;;;;;5033292;28;20049;-72
2023/08/16 11:36:01;;;;;;;0.40;0.40;;;28.30;71.90;;;;;;5033382;28;20376;-71
2023/08/16 11:38:27;;;;;;;0.85;0.57;;;;;;;;;;5033002;28;20040;-73
2023/08/16 11:40:55;;;;;;;1.75;0.50;;;28.50;72.60;;;;;;5033136;28;20041;-72
2023/08/16 11:43:28;;;;;;;0.35;0.32;;;28.50;65.30;;;;;;5033344;28;20025;-71
2023/08/16 11:45:55;;;;;;;1.17;0.40;;;28.40;71.60;;;;;;5033313;28;20029;-73
2023/08/16 11:48:24;;;;;;;1.13;0.50;;;;;;;;;;5033389;28;20033;-73
2023/08/16 11:50:50;;;;;;;0.77;0.40;;;;;;;;;;5032818;28;20072;-72
2023/08/16 11:53:17;;;;;;;0.90;0.30;;;;;;;;;;5032729;28;20550;-71
2023/08/16 11:55:59;;;;;;;0.65;0.40;;;28.30;73.10;;;;;;5032700;28;20052;-71
2023/08/16 11:58:25;;;;;;;0.55;0.45;;;;;;;;;;5033152;28;20103;-72
2023/08/16 12:00:52;;;;;;;0.75;0.50;;;;;;;;;;5032951;28;20377;-71
2023/08/16 12:03:19;;;;;;;1.38;0.30;;;;;;;;;;5032512;28;20550;-71
2023/08/16 12:05:49;;;;;;;0.95;0.45;;;28.20;73.40;;;;;;5032765;28;20040;-71
2023/08/16 12:08:20;;;;;;;0.68;0.50;;;28.10;67.60;;;;;;5032611;28;20072;-71
2023/08/16 12:10:53;;;;;;;0.98;0.60;;;28.20;67.80;;;;;;5032709;28;20025;-72
2023/08/16 12:13:20;;;;;;;0.47;0.30;;;;;;;;;;5032171;28;20049;-73
2023/08/16 12:15:47;;;;;;;1.05;0.47;;;;;;;;;;5033045;28;20075;-73
2023/08/16 12:18:17;;;;;;;0.70;0.70;;;;;;;;;;5032571;28;20066;-72
2023/08/16 12:20:49;;;;;;;1.27;0.50;;;;;;;;;;5032585;28;20042;-72
2023/08/16 12:23:17;;;;;;;0.75;0.40;;;28.70;72.20;;;;;;5032593;28;20037;-72
2023/08/16 12:25:43;;;;;;;0.70;0.47;;;;;;;;;;5032325;28;20033;-72
2023/08/16 12:28:10;;;;;;;1.67;0.60;;;;;;;;;;5032596;28;20029;-71
2023/08/16 12:30:37;;;;;;;0.40;0.30;;;;;;;;;;5032390;28;20034;-75
2023/08/16 12:33:04;;;;;;;2.58;0.65;;;;;;;;;;5032344;28;20044;-73
2023/08/16 12:35:31;;;;;;;0.50;0.50;;;;;;;;;;5032449;28;20112;-73
2023/08/16 12:37:58;;;;;;;0.60;0.45;;;;;;;;;;5031973;28;20109;-72
2023/08/16 12:40:28;;;;;;;1.15;0.70;;;;;;;;;;5032072;28;20542;-72
2023/08/16 12:42:55;;;;;;;2.28;0.50;;;;;;;;;;5032188;28;20029;-72
2023/08/16 12:45:21;;;;;;;0.50;0.30;;;;;;;;;;5032823;28;20055;-71
2023/08/16 12:47:48;;;;;;;0.93;0.40;;;;;;;;;;5031879;28;20037;-71
2023/08/16 12:50:14;;;;;;;0.93;0.50;;;;;;;;;;5032320;28;20044;-72
2023/08/16 12:52:41;;;;;;;0.60;0.50;;;;;;;;;;5032201;28;20471;-71
2023/08/16 12:55:07;;;;;;;0.73;0.47;;;;;;;;;;5032176;28;20096;-71
2023/08/16 12:57:34;;;;;;;1.08;0.40;;;;;;;;;;5032234;28;20061;-72
2023/08/16 13:00:00;;;;;;;0.82;0.22;;;;;;;;;;5031885;28;20536;-72
2023/08/16 13:02:27;;;;;;;1.85;0.43;;;;;;;;;;5032114;28;20034;-72
2023/08/16 13:04:53;;;;;;;0.47;0.30;;;;;;;;;;5031935;28;20554;-71
2023/08/16 13:07:19;;;;;;;0.68;0.30;;;;;;;;;;5031785;28;20094;-72
2023/08/16 13:09:46;;;;;;;0.70;0.52;;;29.90;70.30;;;;;;5032050;28;20045;-73
2023/08/16 13:12:13;;;;;;;0.30;0.30;;;;;;;;;;5031499;28;20148;-73
2023/08/16 13:14:40;;;;;;;0.60;0.40;;;;;;;;;;5031750;28;20053;-72
2023/08/16 13:17:08;;;;;;;1.10;0.40;;;;;;;;;;5032279;28;20393;-73
2023/08/16 13:19:34;;;;;;;0.60;0.38;;;;;;;;;;5032199;28;20037;-73
2023/08/16 13:22:01;;;;;;;1.25;0.38;;;;;;;;;;5032188;28;20126;-73
2023/08/16 13:24:27;;;;;;;1.50;0.40;;;;;;;;;;5031844;28;20034;-72
2023/08/16 13:26:54;;;;;;;0.68;0.30;;;;;;;;;;5032154;28;20041;-73
2023/08/16 13:29:20;;;;;;;0.40;0.40;;;;;;;;;;5031709;28;20037;-73
2023/08/16 13:31:47;;;;;;;0.93;0.40;;;;;;;;;;5031969;28;20041;-73
2023/08/16 13:34:13;;;;;;;0.55;0.20;;;;;;;;;;5031806;28;20049;-73
2023/08/16 13:36:40;;;;;;;0.82;0.40;;;;;;;;;;5031813;28;20030;-74
2023/08/16 13:39:06;;;;;;;0.43;0.30;;;;;;;;;;5031758;28;20048;-73
2023/08/16 13:41:33;;;;;;;0.77;0.30;;;;;;;;;;5032116;28;20111;-73
2023/08/16 13:43:59;;;;;;;0.60;0.35;;;;;;;;;;5031690;28;20623;-73
2023/08/16 13:46:26;;;;;;;0.75;0.35;;;;;;;;;;5031705;28;20484;-74
2023/08/16 13:48:53;;;;;;;0.93;0.43;;;;;;;;;;5031994;28;20135;-73
2023/08/16 13:51:19;;;;;;;0.52;0.32;;;;;;;;;;5031920;28;20164;-73
2023/08/16 13:53:46;;;;;;;0.73;0.40;;;;;;;;;;5033194;28;20403;-74
2023/08/16 13:56:12;;;;;;;0.28;0.20;;;;;;;;;;5035176;28;20040;-74
2023/08/16 13:58:39;;;;;;;0.70;0.30;;;;;;;;;;5035079;28;20056;-74
2023/08/16 14:01:05;;;;;;;0.57;0.40;;;;;;;;;;5035332;28;20034;-73
2023/08/16 14:03:32;;;;;;;2.67;0.45;;;;;;;;;;5035237;28;20040;-74
2023/08/16 14:06:01;;;;;;;0.75;0.30;;;29.90;69.50;;;;;;5035269;28;20057;-75
2023/08/16 14:08:28;;;;;;;0.20;0.20;;;;;;;;;;5035669;28;20277;-74
2023/08/16 14:10:57;;;;;;;0.70;0.40;;;29.90;69.60;;;;;;5035866;28;20403;-75
2023/08/16 14:13:24;;;;;;;0.93;0.40;;;;;;;;;;5034789;28;20051;-71
2023/08/16 14:15:55;;;;;;;0.68;0.20;;;29.90;64.60;;;;;;5034812;28;20171;-72
2023/08/16 14:18:21;;;;;;;0.88;0.30;;;;;;;;;;5034742;28;20037;-71